Terminal Aerodrome Forecast
Issued by NWS

Home | Current Version | Previous Version | Text Only | Print | Product List | Glossary On
Versions: 1 2 3 4 5 6 7 8 9 10 11 12 13 14 15 16
000
FTUS43 KPAH 161120
TAFCGI
TAF
KCGI 161120Z 1612/1712 34010KT P6SM SCT100
     FM161800 33010KT P6SM SCT025
      TEMPO 1620/1624 BKN025
     FM170000 33006KT P6SM BKN030
     FM170600 32003KT P6SM SCT030=

USA.gov is the U.S. government's official web portal to all federal, state and local government web resources and services.